Time,TemperatureF,DewpointF,PressureIn,WindDirection,WindDirectionDegrees,WindSpeedMPH,WindSpeedGustMPH,Humidity,HourlyPrecipIn,Conditions,Clouds,dailyrainin,SoftwareType,DateUTC
2013-06-17 00:08:00,63.0,50.0,30.00,SSW,203,2.0,4.0,63,0.00,,,0.00,weatherlink.com 1.10,2013-06-17 07:08:00,
2013-06-17 00:23:00,62.7,51.0,30.00,SSE,153,1.0,4.0,65,0.00,,,0.00,weatherlink.com 1.10,2013-06-17 07:23:00,
2013-06-17 00:38:00,62.2,51.0,30.00,SSE,155,1.0,4.0,66,0.00,,,0.00,weatherlink.com 1.10,2013-06-17 07:38:00,
2013-06-17 00:53:00,61.7,51.0,30.01,SSE,155,2.0,3.0,67,0.00,,,0.00,weatherlink.com 1.10,2013-06-17 07:53:00,
2013-06-17 01:08:00,61.5,51.0,30.01,SSE,153,1.0,3.0,68,0.00,,,0.00,weatherlink.com 1.10,2013-06-17 08:08:00,
2013-06-17 01:23:00,61.2,51.0,30.01,South,184,0.0,6.0,69,0.00,,,0.00,weatherlink.com 1.10,2013-06-17 08:23:00,
2013-06-17 01:38:00,60.4,51.0,30.01,SSW,193,1.0,2.0,70,0.00,,,0.00,weatherlink.com 1.10,2013-06-17 08:38:00,
2013-06-17 01:53:00,59.6,50.0,30.00,SSW,198,0.0,3.0,71,0.00,,,0.00,weatherlink.com 1.10,2013-06-17 08:53:00,
2013-06-17 02:08:00,58.6,50.0,30.00,South,181,3.0,4.0,73,0.00,,,0.00,weatherlink.com 1.10,2013-06-17 09:08:00,
2013-06-17 02:23:00,58.3,50.0,30.00,SSW,199,1.0,4.0,75,0.00,,,0.00,weatherlink.com 1.10,2013-06-17 09:23:00,
2013-06-17 02:38:00,58.0,50.0,29.99,SSW,201,1.0,4.0,74,0.00,,,0.00,weatherlink.com 1.10,2013-06-17 09:38:00,
2013-06-17 02:53:00,57.9,50.0,29.99,SSW,198,3.0,7.0,76,0.00,,,0.00,weatherlink.com 1.10,2013-06-17 09:53:00,
2013-06-17 03:08:00,58.2,50.0,29.99,SW,218,4.0,6.0,75,0.00,,,0.00,weatherlink.com 1.10,2013-06-17 10:08:00,
2013-06-17 03:23:00,58.1,51.0,29.99,SSW,194,2.0,6.0,76,0.00,,,0.00,weatherlink.com 1.10,2013-06-17 10:23:00,
2013-06-17 03:39:00,57.9,50.0,29.99,SW,221,3.0,8.0,76,0.00,,,0.00,weatherlink.com 1.10,2013-06-17 10:39:00,
2013-06-17 03:54:00,58.1,50.0,29.99,SW,217,4.0,7.0,75,0.00,,,0.00,weatherlink.com 1.10,2013-06-17 10:54:00,
2013-06-17 04:09:00,57.8,50.0,29.99,SSW,198,5.0,7.0,76,0.00,,,0.00,weatherlink.com 1.10,2013-06-17 11:09:00,
2013-06-17 04:24:00,57.8,51.0,29.99,SW,229,4.0,8.0,77,0.00,,,0.00,weatherlink.com 1.10,2013-06-17 11:24:00,
2013-06-17 04:39:00,57.8,51.0,29.99,South,188,4.0,11.0,77,0.00,,,0.00,weatherlink.com 1.10,2013-06-17 11:39:00,
2013-06-17 04:54:00,57.7,51.0,29.99,SSW,207,4.0,9.0,78,0.00,,,0.00,weatherlink.com 1.10,2013-06-17 11:54:00,
2013-06-17 05:09:00,57.5,51.0,30.00,SW,227,3.0,8.0,78,0.00,,,0.00,weatherlink.com 1.10,2013-06-17 12:09:00,
2013-06-17 05:24:00,57.2,51.0,30.00,SSW,192,2.0,7.0,79,0.00,,,0.00,weatherlink.com 1.10,2013-06-17 12:24:00,
2013-06-17 05:39:00,56.9,50.0,30.00,SW,214,1.0,6.0,79,0.00,,,0.00,weatherlink.com 1.10,2013-06-17 12:39:00,
2013-06-17 05:54:00,56.3,50.0,30.00,SSW,200,2.0,3.0,80,0.00,,,0.00,weatherlink.com 1.10,2013-06-17 12:54:00,
2013-06-17 06:09:00,56.2,50.0,30.01,SSW,202,1.0,4.0,80,0.00,,,0.00,weatherlink.com 1.10,2013-06-17 13:09:00,
2013-06-17 06:24:00,56.9,51.0,30.01,SW,219,3.0,5.0,80,0.00,,,0.00,weatherlink.com 1.10,2013-06-17 13:24:00,
2013-06-17 06:39:00,57.9,51.0,30.01,SSE,164,3.0,6.0,78,0.00,,,0.00,weatherlink.com 1.10,2013-06-17 13:39:00,
2013-06-17 06:54:00,58.9,51.0,30.01,South,184,2.0,8.0,76,0.00,,,0.00,weatherlink.com 1.10,2013-06-17 13:54:00,
2013-06-17 07:09:00,59.9,52.0,30.01,South,188,2.0,11.0,74,0.00,,,0.00,weatherlink.com 1.10,2013-06-17 14:09:00,
2013-06-17 07:24:00,60.9,52.0,30.01,SSW,198,4.0,7.0,72,0.00,,,0.00,weatherlink.com 1.10,2013-06-17 14:24:00,
2013-06-17 07:39:00,61.9,52.0,30.01,South,188,3.0,8.0,70,0.00,,,0.00,weatherlink.com 1.10,2013-06-17 14:39:00,
2013-06-17 07:54:00,62.7,52.0,30.02,SSW,201,3.0,7.0,68,0.00,,,0.00,weatherlink.com 1.10,2013-06-17 14:54:00,
2013-06-17 08:09:00,63.6,52.0,30.02,SW,223,6.0,8.0,66,0.00,,,0.00,weatherlink.com 1.10,2013-06-17 15:09:00,
2013-06-17 08:24:00,64.7,52.0,30.02,SW,219,5.0,8.0,64,0.00,,,0.00,weatherlink.com 1.10,2013-06-17 15:24:00,
2013-06-17 08:39:00,65.8,52.0,30.02,WSW,238,3.0,8.0,62,0.00,,,0.00,weatherlink.com 1.10,2013-06-17 15:39:00,
2013-06-17 08:55:00,67.2,53.0,30.02,SSW,198,5.0,10.0,61,0.00,,,0.00,weatherlink.com 1.10,2013-06-17 15:55:00,
2013-06-17 09:10:00,68.4,53.0,30.03,SW,222,3.0,9.0,59,0.00,,,0.00,weatherlink.com 1.10,2013-06-17 16:10:00,
2013-06-17 09:25:00,69.5,54.0,30.02,WSW,238,6.0,7.0,58,0.00,,,0.00,weatherlink.com 1.10,2013-06-17 16:25:00,
2013-06-17 09:40:00,70.5,53.0,30.02,SSW,210,2.0,11.0,54,0.00,,,0.00,weatherlink.com 1.10,2013-06-17 16:40:00,
2013-06-17 09:55:00,71.6,53.0,30.02,SW,229,5.0,7.0,53,0.00,,,0.00,weatherlink.com 1.10,2013-06-17 16:55:00,
2013-06-17 10:10:00,72.8,55.0,30.02,South,186,2.0,6.0,53,0.00,,,0.00,weatherlink.com 1.10,2013-06-17 17:10:00,
2013-06-17 10:25:00,73.5,53.0,30.01,SSW,204,4.0,8.0,49,0.00,,,0.00,weatherlink.com 1.10,2013-06-17 17:25:00,
2013-06-17 10:40:00,74.7,54.0,30.01,SW,236,3.0,8.0,48,0.00,,,0.00,weatherlink.com 1.10,2013-06-17 17:40:00,
2013-06-17 10:55:00,76.1,54.0,30.01,SSW,205,1.0,8.0,46,0.00,,,0.00,weatherlink.com 1.10,2013-06-17 17:55:00,
2013-06-17 11:10:00,77.4,53.0,30.00,West,271,5.0,8.0,43,0.00,,,0.00,weatherlink.com 1.10,2013-06-17 18:10:00,
2013-06-17 11:25:00,78.6,54.0,30.00,SSE,148,5.0,9.0,42,0.00,,,0.00,weatherlink.com 1.10,2013-06-17 18:25:00,
2013-06-17 11:40:00,79.3,52.0,30.00,SW,217,2.0,10.0,39,0.00,,,0.00,weatherlink.com 1.10,2013-06-17 18:40:00,
2013-06-17 11:55:00,80.2,54.0,30.00,South,185,6.0,9.0,41,0.00,,,0.00,weatherlink.com 1.10,2013-06-17 18:55:00,
2013-06-17 12:10:00,81.1,53.0,30.00,WSW,242,4.0,12.0,38,0.00,,,0.00,weatherlink.com 1.10,2013-06-17 19:10:00,
2013-06-17 12:25:00,81.4,53.0,30.00,WSW,247,6.0,12.0,37,0.00,,,0.00,weatherlink.com 1.10,2013-06-17 19:25:00,
2013-06-17 12:41:00,82.4,54.0,30.00,South,190,11.0,12.0,38,0.00,,,0.00,weatherlink.com 1.10,2013-06-17 19:41:00,
2013-06-17 12:56:00,82.7,55.0,29.99,SW,220,6.0,12.0,38,0.00,,,0.00,weatherlink.com 1.10,2013-06-17 19:56:00,
2013-06-17 13:11:00,82.9,53.0,29.98,SSW,200,7.0,13.0,35,0.00,,,0.00,weatherlink.com 1.10,2013-06-17 20:11:00,
2013-06-17 13:26:00,84.1,54.0,29.98,WSW,250,6.0,14.0,35,0.00,,,0.00,weatherlink.com 1.10,2013-06-17 20:26:00,
2013-06-17 13:41:00,84.2,55.0,29.98,SSW,203,11.0,14.0,37,0.00,,,0.00,weatherlink.com 1.10,2013-06-17 20:41:00,
2013-06-17 13:56:00,84.7,55.0,29.98,SSW,209,11.0,16.0,36,0.00,,,0.00,weatherlink.com 1.10,2013-06-17 20:56:00,
2013-06-17 14:11:00,84.9,56.0,29.97,SW,225,13.0,16.0,37,0.00,,,0.00,weatherlink.com 1.10,2013-06-17 21:11:00,
2013-06-17 14:26:00,85.2,55.0,29.96,WSW,258,9.0,18.0,35,0.00,,,0.00,weatherlink.com 1.10,2013-06-17 21:26:00,
2013-06-17 14:41:00,85.5,54.0,29.96,SSW,211,9.0,18.0,34,0.00,,,0.00,weatherlink.com 1.10,2013-06-17 21:41:00,
2013-06-17 14:56:00,85.7,56.0,29.96,SW,232,10.0,18.0,36,0.00,,,0.00,weatherlink.com 1.10,2013-06-17 21:56:00,
2013-06-17 15:11:00,85.1,55.0,29.96,SSW,213,11.0,18.0,36,0.00,,,0.00,weatherlink.com 1.10,2013-06-17 22:11:00,
2013-06-17 15:26:00,84.9,56.0,29.96,SSW,200,7.0,19.0,37,0.00,,,0.00,weatherlink.com 1.10,2013-06-17 22:26:00,
2013-06-17 15:41:00,84.4,55.0,29.95,SW,228,11.0,18.0,37,0.00,,,0.00,weatherlink.com 1.10,2013-06-17 22:41:00,
2013-06-17 15:56:00,84.0,56.0,29.95,WSW,242,14.0,17.0,38,0.00,,,0.00,weatherlink.com 1.10,2013-06-17 22:56:00,
2013-06-17 16:11:00,83.6,55.0,29.95,SW,231,10.0,22.0,38,0.00,,,0.00,weatherlink.com 1.10,2013-06-17 23:11:00,
2013-06-17 16:26:00,82.7,55.0,29.94,West,277,11.0,21.0,39,0.00,,,0.00,weatherlink.com 1.10,2013-06-17 23:26:00,
2013-06-17 16:41:00,81.7,56.0,29.94,SW,226,14.0,22.0,41,0.00,,,0.00,weatherlink.com 1.10,2013-06-17 23:41:00,
2013-06-17 16:56:00,81.4,55.0,29.94,SW,225,10.0,18.0,41,0.00,,,0.00,weatherlink.com 1.10,2013-06-17 23:56:00,
2013-06-17 17:11:00,80.2,55.0,29.94,WSW,254,9.0,19.0,42,0.00,,,0.00,weatherlink.com 1.10,2013-06-18 00:11:00,
2013-06-17 17:26:00,79.9,55.0,29.94,SSW,213,7.0,22.0,43,0.00,,,0.00,weatherlink.com 1.10,2013-06-18 00:26:00,
2013-06-17 17:41:00,79.4,55.0,29.93,SW,222,10.0,20.0,43,0.00,,,0.00,weatherlink.com 1.10,2013-06-18 00:41:00,
2013-06-17 17:56:00,78.9,54.0,29.93,SW,226,10.0,21.0,43,0.00,,,0.00,weatherlink.com 1.10,2013-06-18 00:56:00,
2013-06-17 18:11:00,78.1,55.0,29.93,SW,232,10.0,19.0,45,0.00,,,0.00,weatherlink.com 1.10,2013-06-18 01:11:00,
2013-06-17 18:26:00,77.3,55.0,29.93,SW,224,8.0,18.0,46,0.00,,,0.00,weatherlink.com 1.10,2013-06-18 01:26:00,
2013-06-17 18:41:00,76.0,54.0,29.93,SW,236,11.0,19.0,47,0.00,,,0.00,weatherlink.com 1.10,2013-06-18 01:41:00,
2013-06-17 18:56:00,75.2,54.0,29.93,South,171,8.0,22.0,48,0.00,,,0.00,weatherlink.com 1.10,2013-06-18 01:56:00,
2013-06-17 19:11:00,73.9,54.0,29.93,SW,226,8.0,17.0,50,0.00,,,0.00,weatherlink.com 1.10,2013-06-18 02:11:00,
2013-06-17 19:26:00,72.6,53.0,29.92,SW,223,11.0,18.0,51,0.00,,,0.00,weatherlink.com 1.10,2013-06-18 02:26:00,
2013-06-17 19:41:00,71.4,53.0,29.92,WSW,242,13.0,18.0,53,0.00,,,0.00,weatherlink.com 1.10,2013-06-18 02:41:00,
2013-06-17 19:56:00,70.1,53.0,29.92,SW,231,15.0,19.0,55,0.00,,,0.00,weatherlink.com 1.10,2013-06-18 02:56:00,
2013-06-17 20:11:00,68.7,53.0,29.93,SSW,204,7.0,19.0,57,0.00,,,0.00,weatherlink.com 1.10,2013-06-18 03:11:00,
2013-06-17 20:26:00,67.3,53.0,29.93,SW,220,6.0,24.0,60,0.00,,,0.00,weatherlink.com 1.10,2013-06-18 03:26:00,
2013-06-17 20:41:00,66.0,53.0,29.93,SW,223,13.0,20.0,63,0.00,,,0.00,weatherlink.com 1.10,2013-06-18 03:41:00,
2013-06-17 20:56:00,65.0,53.0,29.93,SW,216,8.0,18.0,65,0.00,,,0.00,weatherlink.com 1.10,2013-06-18 03:56:00,
2013-06-17 21:11:00,64.5,53.0,29.94,WSW,237,6.0,19.0,67,0.00,,,0.00,weatherlink.com 1.10,2013-06-18 04:11:00,
2013-06-17 21:26:00,63.9,53.0,29.94,SW,233,6.0,16.0,68,0.00,,,0.00,weatherlink.com 1.10,2013-06-18 04:26:00,
2013-06-17 21:41:00,63.1,54.0,29.95,SW,221,4.0,13.0,71,0.00,,,0.00,weatherlink.com 1.10,2013-06-18 04:41:00,
2013-06-17 21:56:00,62.5,53.0,29.96,SSW,198,3.0,14.0,72,0.00,,,0.00,weatherlink.com 1.10,2013-06-18 04:56:00,
2013-06-17 22:11:00,61.9,54.0,29.96,SW,221,4.0,13.0,74,0.00,,,0.00,weatherlink.com 1.10,2013-06-18 05:11:00,
2013-06-17 22:26:00,61.6,53.0,29.96,SW,229,6.0,12.0,74,0.00,,,0.00,weatherlink.com 1.10,2013-06-18 05:26:00,
2013-06-17 22:42:00,61.3,53.0,29.97,SW,219,4.0,13.0,75,0.00,,,0.00,weatherlink.com 1.10,2013-06-18 05:42:00,
2013-06-17 22:57:00,61.2,53.0,29.96,SSW,213,6.0,13.0,75,0.00,,,0.00,weatherlink.com 1.10,2013-06-18 05:57:00,
2013-06-17 23:12:00,61.1,54.0,29.96,SW,229,4.0,13.0,76,0.00,,,0.00,weatherlink.com 1.10,2013-06-18 06:12:00,
2013-06-17 23:27:00,60.8,54.0,29.96,SSW,205,3.0,11.0,77,0.00,,,0.00,weatherlink.com 1.10,2013-06-18 06:27:00,
2013-06-17 23:42:00,60.6,53.0,29.96,South,180,4.0,12.0,77,0.00,,,0.00,weatherlink.com 1.10,2013-06-18 06:42:00,
2013-06-17 23:57:00,60.3,53.0,29.97,South,179,4.0,10.0,78,0.00,,,0.00,weatherlink.com 1.10,2013-06-18 06:57:00,